< < Back
Terminal Aerodrome Forecast


Current Version              Previous Versions:   1  2  3  4  5  6  7  8  9  

Terminal Aerodrome Forecast

815
FTUS42 KCHS 191700
TAFCHS
TAF
KCHS 191720Z 1918/2018 03007KT P6SM SCT250
     FM200000 07003KT P6SM SKC=



Latest METAR

751
SAUS80 KWBC 200300 RRA
MTRCHS
METAR KCHS 200256Z 00000KT 10SM FEW250 13/10 A3012 RMK AO2 SLP200
T01330100 51006


USA.gov is the U.S. government's official web portal to all federal, state and local government web resources and services.